Time;durP1;ratioP1;P1;durP2;ratioP2;P2;SDS_P1;SDS_P2;PMS_P1;PMS_P2;Temp;Humidity;BMP_temperature;BMP_pressure;BME280_temperature;BME280_humidity;BME280_pressure;Samples;Min_cycle;Max_cycle;Signal;HPM_P1;HPM_P2
2020/12/06 00:01:47;;;;;;;;;;;;;;;;;;5072554;28;19990;-80
2020/12/06 00:04:27;;;;;;;;;;;;;;;;;;5073448;28;20018;-80
2020/12/06 00:06:57;;;;;;;;;;;;;;;;;;5082035;28;19928;-80
2020/12/06 00:09:24;;;;;;;;;;;;;;;;;;5074754;28;19923;-80
2020/12/06 00:11:50;;;;;;;;;;;;;;;;;;5094490;28;20400;-80
2020/12/06 00:14:17;;;;;;;;;;;;;;;;;;5091295;28;20019;-80
2020/12/06 00:16:44;;;;;;;;;;;;;;;;;;5067498;28;20031;-80
2020/12/06 00:19:11;;;;;;;;;;;;;;;;;;5089741;28;20422;-80
2020/12/06 00:21:38;;;;;;;;;;;;;;;;;;5074367;28;20015;-80
2020/12/06 00:24:20;;;;;;;;;;;;;;;;;;5074652;28;19924;-80
2020/12/06 00:26:46;;;;;;;;;;;;;;;;;;5074633;28;20066;-80
2020/12/06 00:29:13;;;;;;;;;;;;;;;;;;5074512;28;19979;-80
2020/12/06 00:31:39;;;;;;;;;;;;;;;;;;5091818;28;20015;-80
2020/12/06 00:34:06;;;;;;;;;;;;;;;;;;5065775;28;20038;-80
2020/12/06 00:36:33;;;;;;;;;;;;;;;;;;5080713;28;19930;-80
2020/12/06 00:38:59;;;;;;;;;;;;;;;;;;5082136;28;20039;-80
2020/12/06 00:41:26;;;;;;;;;;;;;;;;;;5082522;28;20011;-80
2020/12/06 00:43:54;;;;;;;;;;;;;;;;;;5074140;28;20452;-81
2020/12/06 00:46:20;;;;;;;;;;;;;;;;;;5071250;28;19962;-80
2020/12/06 00:48:48;;;;;;;;;;;;;;;;;;5083239;28;20019;-81
2020/12/06 00:51:15;;;;;;;;;;;;;;;;;;5063750;28;19931;-80
2020/12/06 00:53:42;;;;;;;;;;;;;;;;;;5070815;28;19972;-81
2020/12/06 00:56:08;;;;;;;;;;;;;;;;;;5092280;28;19975;-81
2020/12/06 00:58:35;;;;;;;;;;;;;;;;;;5092075;28;19924;-81
2020/12/06 01:01:01;;;;;;;;;;;;;;;;;;5073738;28;20039;-81
2020/12/06 01:03:28;;;;;;;;;;;;;;;;;;5083770;28;19986;-81
2020/12/06 01:05:55;;;;;;;;;;;;;;;;;;5084889;28;19960;-81
2020/12/06 01:08:21;;;;;;;;;;;;;;;;;;5064218;28;19930;-81
2020/12/06 01:10:48;;;;;;;;;;;;;;;;;;5070623;28;19924;-80
2020/12/06 01:13:14;;;;;;;;;;;;;;;;;;5074032;28;19967;-80
2020/12/06 01:15:41;;;;;;;;;;;;;;;;;;5091644;28;20018;-81
2020/12/06 01:18:08;;;;;;;;;;;;;;;;;;5066944;28;19932;-81
2020/12/06 01:20:34;;;;;;;;;;;;;;;;;;5065529;28;19934;-80
2020/12/06 01:23:01;;;;;;;;;;;;;;;;;;5069885;28;19970;-80
2020/12/06 01:25:27;;;;;;;;;;;;;;;;;;5074225;28;20026;-81
2020/12/06 01:27:55;;;;;;;;;;;;;;;;;;5073821;28;20023;-80
2020/12/06 01:30:21;;;;;;;;;;;;;;;;;;5091714;28;20010;-80
2020/12/06 01:32:48;;;;;;;;;;;;;;;;;;5073244;28;20022;-80
2020/12/06 01:35:15;;;;;;;;;;;;;;;;;;5092078;28;19971;-80
2020/12/06 01:37:45;;;;;;;;;;;;;;;;;;5091085;28;20348;-81
2020/12/06 01:40:12;;;;;;;;;;;;;;;;;;5091332;28;20002;-80
2020/12/06 01:42:40;;;;;;;;;;;;;;;;;;5067207;28;20016;-80
2020/12/06 01:45:06;;;;;;;;;;;;;;;;;;5063392;28;19930;-80
2020/12/06 01:47:34;;;;;;;;;;;;;;;;;;5067691;28;19932;-80
2020/12/06 01:50:00;;;;;;;;;;;;;;;;;;5089645;28;19970;-80
2020/12/06 01:52:29;;;;;;;;;;;;;;;;;;5073544;28;20395;-80
2020/12/06 01:54:56;;;;;;;;;;;;;;;;;;5073113;28;20568;-80
2020/12/06 01:57:24;;;;;;;;;;;;;;;;;;5073029;28;20019;-80
2020/12/06 01:59:51;;;;;;;;;;;;;;;;;;5073805;28;19967;-81
2020/12/06 02:02:17;;;;;;;;;;;;;;;;;;5094254;28;20449;-80
2020/12/06 02:04:45;;;;;;;;;;;;;;;;;;5095601;28;19932;-80
2020/12/06 02:07:12;;;;;;;;;;;;;;;;;;5077164;28;20023;-80
2020/12/06 02:09:38;;;;;;;;;;;;;;;;;;5092548;28;19930;-80
2020/12/06 02:12:07;;;;;;;;;;;;;;;;;;5069610;28;20019;-80
2020/12/06 02:14:34;;;;;;;;;;;;;;;;;;5086365;28;20023;-80
2020/12/06 02:17:01;;;;;;;;;;;;;;;;;;5094830;28;20020;-80
2020/12/06 02:19:27;;;;;;;;;;;;;;;;;;5094524;28;19923;-80
2020/12/06 02:22:02;;;;;;;;;;;;;;;;;;5094319;28;19924;-81
2020/12/06 02:24:29;;;;;;;;;;;;;;;;;;5069620;28;19938;-80
2020/12/06 02:26:55;;;;;;;;;;;;;;;;;;5069468;28;19971;-80
2020/12/06 02:29:22;;;;;;;;;;;;;;;;;;5084866;28;19924;-80
2020/12/06 02:31:52;;;;;;;;;;;;;;;;;;5068049;28;19931;-80
2020/12/06 02:34:18;;;;;;;;;;;;;;;;;;5076239;28;20468;-80
2020/12/06 02:36:46;;;;;;;;;;;;;;;;;;5094201;28;19931;-80
2020/12/06 02:39:13;;;;;;;;;;;;;;;;;;5075742;28;19925;-80
2020/12/06 02:41:43;;;;;;;;;;;;;;;;;;5093890;28;19928;-80
2020/12/06 02:44:09;;;;;;;;;;;;;;;;;;5094136;28;19924;-80
2020/12/06 02:46:36;;;;;;;;;;;;;;;;;;5075934;28;20011;-80
2020/12/06 02:49:04;;;;;;;;;;;;;;;;;;5068135;28;19932;-80
2020/12/06 02:51:31;;;;;;;;;;;;;;;;;;5062655;28;19934;-80
2020/12/06 02:53:58;;;;;;;;;;;;;;;;;;5068825;28;19971;-79
2020/12/06 02:56:25;;;;;;;;;;;;;;;;;;5091858;28;19924;-80
2020/12/06 02:58:51;;;;;;;;;;;;;;;;;;5069946;28;19928;-80
2020/12/06 03:01:18;;;;;;;;;;;;;;;;;;5088568;28;19924;-80
2020/12/06 03:03:44;;;;;;;;;;;;;;;;;;5087596;28;20031;-80
2020/12/06 03:06:11;;;;;;;;;;;;;;;;;;5087975;28;19928;-80
2020/12/06 03:08:38;;;;;;;;;;;;;;;;;;5088098;28;20677;-80
2020/12/06 03:11:04;;;;;;;;;;;;;;;;;;5070514;28;19928;-80
2020/12/06 03:13:37;;;;;;;;;;;;;;;;;;5069915;28;19971;-79
2020/12/06 03:16:03;;;;;;;;;;;;;;;;;;5067428;28;20331;-79
2020/12/06 03:18:30;;;;;;;;;;;;;;;;;;5076804;28;19971;-80
2020/12/06 03:20:59;;;;;;;;;;;;;;;;;;5058401;28;19968;-80
2020/12/06 03:23:26;;;;;;;;;;;;;;;;;;5057568;28;19932;-80
2020/12/06 03:25:53;;;;;;;;;;;;;;;;;;5103666;28;19928;-80
2020/12/06 03:28:20;;;;;;;;;;;;;;;;;;5090167;28;19981;-79
2020/12/06 03:30:47;;;;;;;;;;;;;;;;;;5096057;28;20019;-80
2020/12/06 03:33:13;;;;;;;;;;;;;;;;;;5088437;28;20027;-80
2020/12/06 03:35:41;;;;;;;;;;;;;;;;;;5072420;28;20575;-81
2020/12/06 03:38:07;;;;;;;;;;;;;;;;;;5091562;28;19950;-80
2020/12/06 03:40:34;;;;;;;;;;;;;;;;;;5070045;28;20038;-80
2020/12/06 03:43:01;;;;;;;;;;;;;;;;;;5068986;28;19963;-80
2020/12/06 03:45:28;;;;;;;;;;;;;;;;;;5076540;28;20402;-81
2020/12/06 03:47:57;;;;;;;;;;;;;;;;;;5062835;28;20039;-80
2020/12/06 03:50:23;;;;;;;;;;;;;;;;;;5085007;28;20580;-80
2020/12/06 03:52:50;;;;;;;;;;;;;;;;;;5092791;28;19979;-80
2020/12/06 03:55:16;;;;;;;;;;;;;;;;;;5092769;28;19931;-80
2020/12/06 03:57:44;;;;;;;;;;;;;;;;;;5092379;28;20015;-80
2020/12/06 04:00:10;;;;;;;;;;;;;;;;;;5074256;28;19971;-80
2020/12/06 04:02:37;;;;;;;;;;;;;;;;;;5091332;28;21151;-80
2020/12/06 04:05:07;;;;;;;;;;;;;;;;;;5073790;28;19935;-80
2020/12/06 04:07:41;;;;;;;;;;;;;;;;;;5086649;28;19924;-80
2020/12/06 04:10:07;;;;;;;;;;;;;;;;;;5092140;28;20430;-80
2020/12/06 04:12:35;;;;;;;;;;;;;;;;;;5092239;28;19978;-80
2020/12/06 04:15:01;;;;;;;;;;;;;;;;;;5092098;28;19975;-80
2020/12/06 04:17:31;;;;;;;;;;;;;;;;;;5088721;28;20001;-80
2020/12/06 04:19:57;;;;;;;;;;;;;;;;;;5084331;28;20051;-80
2020/12/06 04:22:25;;;;;;;;;;;;;;;;;;5082575;28;19928;-81
2020/12/06 04:24:51;;;;;;;;;;;;;;;;;;5083748;28;20010;-80
2020/12/06 04:27:18;;;;;;;;;;;;;;;;;;5089415;28;21412;-80
2020/12/06 04:29:44;;;;;;;;;;;;;;;;;;5067066;28;20007;-81
2020/12/06 04:32:11;;;;;;;;;;;;;;;;;;5082001;28;19959;-80
2020/12/06 04:34:37;;;;;;;;;;;;;;;;;;5070644;28;20689;-81
2020/12/06 04:37:04;;;;;;;;;;;;;;;;;;5090551;28;20023;-80
2020/12/06 04:39:32;;;;;;;;;;;;;;;;;;5070790;28;19934;-81
2020/12/06 04:41:59;;;;;;;;;;;;;;;;;;5090194;28;20627;-80
2020/12/06 04:44:26;;;;;;;;;;;;;;;;;;5072070;28;20621;-80
2020/12/06 04:46:53;;;;;;;;;;;;;;;;;;5084670;28;20020;-80
2020/12/06 04:49:19;;;;;;;;;;;;;;;;;;5079418;28;20006;-80
2020/12/06 04:51:46;;;;;;;;;;;;;;;;;;5086641;28;20036;-80
2020/12/06 04:54:12;;;;;;;;;;;;;;;;;;5072980;28;19928;-80
2020/12/06 04:56:42;;;;;;;;;;;;;;;;;;5073535;28;19964;-80
2020/12/06 04:59:09;;;;;;;;;;;;;;;;;;5073878;28;19997;-80
2020/12/06 05:01:42;;;;;;;;;;;;;;;;;;5091307;28;19928;-80
2020/12/06 05:04:09;;;;;;;;;;;;;;;;;;5073705;28;19968;-80
2020/12/06 05:06:37;;;;;;;;;;;;;;;;;;5070188;28;19979;-80
2020/12/06 05:09:04;;;;;;;;;;;;;;;;;;5083301;28;19924;-80
2020/12/06 05:11:31;;;;;;;;;;;;;;;;;;5082378;28;19995;-80
2020/12/06 05:13:58;;;;;;;;;;;;;;;;;;5089998;28;20015;-80
2020/12/06 05:16:24;;;;;;;;;;;;;;;;;;5073297;28;19932;-80
2020/12/06 05:18:51;;;;;;;;;;;;;;;;;;5091698;28;20014;-81
2020/12/06 05:21:18;;;;;;;;;;;;;;;;;;5073974;28;20015;-80
2020/12/06 05:23:44;;;;;;;;;;;;;;;;;;5091456;28;20024;-80
2020/12/06 05:26:11;;;;;;;;;;;;;;;;;;5073034;28;20361;-80
2020/12/06 05:28:37;;;;;;;;;;;;;;;;;;5080354;28;20102;-80
2020/12/06 05:31:04;;;;;;;;;;;;;;;;;;5082662;28;19999;-81
2020/12/06 05:33:30;;;;;;;;;;;;;;;;;;5081291;28;20023;-81
2020/12/06 05:35:58;;;;;;;;;;;;;;;;;;5072243;28;20007;-81
2020/12/06 05:38:24;;;;;;;;;;;;;;;;;;5085154;28;20035;-81
2020/12/06 05:40:53;;;;;;;;;;;;;;;;;;5067611;28;20005;-82
2020/12/06 05:43:20;;;;;;;;;;;;;;;;;;5090824;27;19924;-82
2020/12/06 05:45:46;;;;;;;;;;;;;;;;;;5080877;28;20398;-84
2020/12/06 05:48:13;;;;;;;;;;;;;;;;;;5069875;28;20001;-82
2020/12/06 05:50:39;;;;;;;;;;;;;;;;;;5068483;28;20029;-82
2020/12/06 05:53:06;;;;;;;;;;;;;;;;;;5076095;28;19986;-83
2020/12/06 05:55:32;;;;;;;;;;;;;;;;;;5076850;28;20370;-83
2020/12/06 05:57:59;;;;;;;;;;;;;;;;;;5095759;28;20488;-83
2020/12/06 06:00:26;;;;;;;;;;;;;;;;;;5077940;28;20011;-83
2020/12/06 06:02:53;;;;;;;;;;;;;;;;;;5075921;28;19924;-81
2020/12/06 06:05:20;;;;;;;;;;;;;;;;;;5075990;28;20012;-83
2020/12/06 06:07:46;;;;;;;;;;;;;;;;;;5086072;28;20980;-82
2020/12/06 06:10:13;;;;;;;;;;;;;;;;;;5087729;28;19967;-82
2020/12/06 06:12:39;;;;;;;;;;;;;;;;;;5084800;28;20003;-84
2020/12/06 06:15:06;;;;;;;;;;;;;;;;;;5077416;28;19924;-83
2020/12/06 06:17:33;;;;;;;;;;;;;;;;;;5076683;28;20601;-82
2020/12/06 06:19:59;;;;;;;;;;;;;;;;;;5088016;28;20007;-83
2020/12/06 06:22:26;;;;;;;;;;;;;;;;;;5082150;28;19924;-82
2020/12/06 06:24:53;;;;;;;;;;;;;;;;;;5069770;28;19967;-83
2020/12/06 06:27:20;;;;;;;;;;;;;;;;;;5074303;28;19924;-83
2020/12/06 06:29:48;;;;;;;;;;;;;;;;;;5076380;28;19927;-83
2020/12/06 06:32:15;;;;;;;;;;;;;;;;;;5094103;28;19967;-83
2020/12/06 06:34:41;;;;;;;;;;;;;;;;;;5094511;28;19998;-83
2020/12/06 06:37:08;;;;;;;;;;;;;;;;;;5067283;28;19924;-83
2020/12/06 06:39:34;;;;;;;;;;;;;;;;;;5083399;28;19930;-85
2020/12/06 06:42:09;;;;;;;;;;;;;;;;;;5082154;28;19924;-83
2020/12/06 06:44:36;;;;;;;;;;;;;;;;;;5090978;28;19967;-84
2020/12/06 06:47:03;;;;;;;;;;;;;;;;;;5066610;28;20027;-83
2020/12/06 06:49:30;;;;;;;;;;;;;;;;;;5065111;28;20018;-82
2020/12/06 06:52:05;;;;;;;;;;;;;;;;;;5079424;28;19938;-82
2020/12/06 06:54:32;;;;;;;;;;;;;;;;;;5066923;28;19938;-83
2020/12/06 06:56:59;;;;;;;;;;;;;;;;;;5069573;28;19924;-83
2020/12/06 06:59:26;;;;;;;;;;;;;;;;;;5075229;28;20030;-84
2020/12/06 07:01:52;;;;;;;;;;;;;;;;;;5067840;28;20376;-84
2020/12/06 07:04:23;;;;;;;;;;;;;;;;;;5068962;28;20011;-84
2020/12/06 07:06:50;;;;;;;;;;;;;;;;;;5066429;28;19928;-83
2020/12/06 07:09:18;;;;;;;;;;;;;;;;;;5080174;28;20327;-83
2020/12/06 07:11:44;;;;;;;;;;;;;;;;;;5066084;28;20616;-83
2020/12/06 07:14:13;;;;;;;;;;;;;;;;;;5079536;28;20512;-83
2020/12/06 07:16:40;;;;;;;;;;;;;;;;;;5074054;28;19966;-83
2020/12/06 07:19:06;;;;;;;;;;;;;;;;;;5082070;28;19931;-83
2020/12/06 07:21:33;;;;;;;;;;;;;;;;;;5078223;28;20028;-83
2020/12/06 07:23:59;;;;;;;;;;;;;;;;;;5088547;28;20015;-83
2020/12/06 07:26:29;;;;;;;;;;;;;;;;;;5073675;28;20024;-83
2020/12/06 07:28:56;;;;;;;;;;;;;;;;;;5074419;28;19924;-83
2020/12/06 07:31:23;;;;;;;;;;;;;;;;;;5073528;28;19970;-83
2020/12/06 07:33:50;;;;;;;;;;;;;;;;;;5073385;28;20029;-82
2020/12/06 07:36:20;;;;;;;;;;;;;;;;;;5068219;28;19928;-83
2020/12/06 07:38:46;;;;;;;;;;;;;;;;;;5082585;28;20755;-82
2020/12/06 07:41:17;;;;;;;;;;;;;;;;;;5068994;28;19960;-82
2020/12/06 07:43:43;;;;;;;;;;;;;;;;;;5073886;28;19967;-82
2020/12/06 07:46:16;;;;;;;;;;;;;;;;;;5091289;28;20395;-82
2020/12/06 07:48:46;;;;;;;;;;;;;;;;;;5091093;28;19932;-82
2020/12/06 07:51:12;;;;;;;;;;;;;;;;;;5072647;28;19931;-82
2020/12/06 07:53:42;;;;;;;;;;;;;;;;;;5069915;28;19964;-82
2020/12/06 07:56:08;;;;;;;;;;;;;;;;;;5065572;28;19932;-82
2020/12/06 07:58:36;;;;;;;;;;;;;;;;;;5066305;28;20007;-83
2020/12/06 08:01:04;;;;;;;;;;;;;;;;;;5083168;28;20960;-83
2020/12/06 08:03:30;;;;;;;;;;;;;;;;;;5072317;28;19939;-82
2020/12/06 08:05:58;;;;;;;;;;;;;;;;;;5090392;28;20423;-83
2020/12/06 08:08:25;;;;;;;;;;;;;;;;;;5090996;28;19928;-83
2020/12/06 08:10:51;;;;;;;;;;;;;;;;;;5073021;28;19924;-83
2020/12/06 08:13:18;;;;;;;;;;;;;;;;;;5071940;28;19935;-83
2020/12/06 08:15:46;;;;;;;;;;;;;;;;;;5064302;28;20411;-83
2020/12/06 08:18:13;;;;;;;;;;;;;;;;;;5082591;28;19928;-83
2020/12/06 08:23:10;;;;;;;;;;;;;;;;;;5080248;28;19931;-83
2020/12/06 08:25:36;;;;;;;;;;;;;;;;;;5064767;28;20016;-83
2020/12/06 08:28:03;;;;;;;;;;;;;;;;;;5067521;28;19981;-83
2020/12/06 08:30:31;;;;;;;;;;;;;;;;;;5079164;28;21257;-82
2020/12/06 08:32:57;;;;;;;;;;;;;;;;;;5060575;28;19932;-82
2020/12/06 08:35:26;;;;;;;;;;;;;;;;;;5064222;28;19934;-83
2020/12/06 08:37:53;;;;;;;;;;;;;;;;;;5061421;28;20083;-83
2020/12/06 08:40:19;;;;;;;;;;;;;;;;;;5063818;28;19959;-82
2020/12/06 08:42:47;;;;;;;;;;;;;;;;;;5073560;28;20019;-81
2020/12/06 08:45:14;;;;;;;;;;;;;;;;;;5072702;28;19932;-87
2020/12/06 08:47:40;;;;;;;;;;;;;;;;;;5066936;28;19985;-81
2020/12/06 08:50:09;;;;;;;;;;;;;;;;;;5077746;28;19938;-84
2020/12/06 08:52:35;;;;;;;;;;;;;;;;;;5063781;28;19935;-86
2020/12/06 08:55:03;;;;;;;;;;;;;;;;;;5052715;28;20025;-82
2020/12/06 08:57:29;;;;;;;;;;;;;;;;;;5092174;28;20043;-81
2020/12/06 08:59:57;;;;;;;;;;;;;;;;;;5074252;28;19978;-85
2020/12/06 09:02:27;;;;;;;;;;;;;;;;;;5073106;28;20926;-84
2020/12/06 09:04:54;;;;;;;;;;;;;;;;;;5065832;28;19928;-82
2020/12/06 09:07:21;;;;;;;;;;;;;;;;;;5083233;28;21134;-83
2020/12/06 09:09:48;;;;;;;;;;;;;;;;;;5064442;28;20384;-82
2020/12/06 09:12:15;;;;;;;;;;;;;;;;;;5071711;28;20372;-84
2020/12/06 09:14:44;;;;;;;;;;;;;;;;;;5064088;28;20066;-82
2020/12/06 09:17:10;;;;;;;;;;;;;;;;;;5068646;28;19932;-83
2020/12/06 09:19:38;;;;;;;;;;;;;;;;;;5071058;28;20016;-83
2020/12/06 09:22:04;;;;;;;;;;;;;;;;;;5070496;28;20487;-83
2020/12/06 09:24:35;;;;;;;;;;;;;;;;;;5068852;28;19971;-84
2020/12/06 09:27:01;;;;;;;;;;;;;;;;;;5071408;28;20022;-85
2020/12/06 09:29:28;;;;;;;;;;;;;;;;;;5074400;28;19960;-86
2020/12/06 09:31:54;;;;;;;;;;;;;;;;;;5074631;28;19974;-87
2020/12/06 09:34:22;;;;;;;;;;;;;;;;;;5089035;28;20016;-86
2020/12/06 09:36:48;;;;;;;;;;;;;;;;;;5069493;28;20414;-87
2020/12/06 09:39:15;;;;;;;;;;;;;;;;;;5079022;28;19931;-88
2020/12/06 09:41:42;;;;;;;;;;;;;;;;;;5078523;28;20017;-87
2020/12/06 09:44:09;;;;;;;;;;;;;;;;;;5078137;28;19924;-87
2020/12/06 09:46:48;;;;;;;;;;;;;;;;;;5078284;28;20351;-88
2020/12/06 09:49:15;;;;;;;;;;;;;;;;;;5077351;28;20023;-86
2020/12/06 09:51:46;;;;;;;;;;;;;;;;;;5069344;28;20284;-87
2020/12/06 09:54:13;;;;;;;;;;;;;;;;;;5088442;28;20014;-88
2020/12/06 09:56:40;;;;;;;;;;;;;;;;;;5068418;28;20435;-91
2020/12/06 10:04:28;;;;;;;;;;;;;;;;;;5085073;28;19924;-85
2020/12/06 10:06:56;;;;;;;;;;;;;;;;;;5070715;28;20039;-82
2020/12/06 10:09:23;;;;;;;;;;;;;;;;;;5085179;28;19928;-81
2020/12/06 10:11:49;;;;;;;;;;;;;;;;;;5082461;28;20381;-81
2020/12/06 10:14:16;;;;;;;;;;;;;;;;;;5085461;28;20413;-82
2020/12/06 10:16:43;;;;;;;;;;;;;;;;;;5085778;28;19932;-83
2020/12/06 10:19:10;;;;;;;;;;;;;;;;;;5087472;28;20011;-85
2020/12/06 10:21:37;;;;;;;;;;;;;;;;;;5081247;28;19975;-77
2020/12/06 10:24:03;;;;;;;;;;;;;;;;;;5069471;28;19931;-82
2020/12/06 10:26:30;;;;;;;;;;;;;;;;;;5069181;28;20044;-80
2020/12/06 10:28:58;;;;;;;;;;;;;;;;;;5065052;28;20003;-80
2020/12/06 10:31:25;;;;;;;;;;;;;;;;;;5064316;28;19931;-82
2020/12/06 10:33:51;;;;;;;;;;;;;;;;;;5068246;28;20015;-82
2020/12/06 10:36:18;;;;;;;;;;;;;;;;;;5067700;28;19977;-85
2020/12/06 10:38:44;;;;;;;;;;;;;;;;;;5086217;28;19932;-83
2020/12/06 10:41:11;;;;;;;;;;;;;;;;;;5086542;28;19960;-85
2020/12/06 10:43:37;;;;;;;;;;;;;;;;;;5085241;28;19995;-86
2020/12/06 10:46:04;;;;;;;;;;;;;;;;;;5085251;28;20478;-86
2020/12/06 10:54:11;;;;;;;;;;;;;;;;;;4943335;28;19938;-86
2020/12/06 10:56:38;;;;;;;;;;;;;;;;;;4952959;28;19969;-85
2020/12/06 10:59:04;;;;;;;;;;;;;;;;;;4946474;28;19953;-86
2020/12/06 11:01:32;;;;;;;;;;;;;;;;;;4952078;28;20549;-86
2020/12/06 11:03:59;;;;;;;;;;;;;;;;;;4955481;28;20017;-86
2020/12/06 11:06:28;;;;;;;;;;;;;;;;;;4944279;28;19927;-84
2020/12/06 11:08:55;;;;;;;;;;;;;;;;;;4953300;28;19969;-85
2020/12/06 11:11:31;;;;;;;;;;;;;;;;;;4942255;28;19931;-91
2020/12/06 11:14:03;;;;;;;;;;;;;;;;;;4948881;28;19941;-80
2020/12/06 11:16:29;;;;;;;;;;;;;;;;;;4945231;28;20610;-85
2020/12/06 11:18:58;;;;;;;;;;;;;;;;;;4952771;28;19978;-83
2020/12/06 11:21:26;;;;;;;;;;;;;;;;;;4942482;28;20016;-80
2020/12/06 11:23:55;;;;;;;;;;;;;;;;;;4945569;28;19973;-84
2020/12/06 11:26:22;;;;;;;;;;;;;;;;;;4944553;28;19993;-85
2020/12/06 11:28:49;;;;;;;;;;;;;;;;;;4941533;28;20030;-85
2020/12/06 11:31:15;;;;;;;;;;;;;;;;;;4946847;28;20463;-85
2020/12/06 11:33:42;;;;;;;;;;;;;;;;;;4950815;28;19950;-85
2020/12/06 11:36:08;;;;;;;;;;;;;;;;;;4953571;29;20017;-85
2020/12/06 11:38:35;;;;;;;;;;;;;;;;;;4952861;29;20004;-85
2020/12/06 11:41:03;;;;;;;;;;;;;;;;;;4952486;28;20020;-86
2020/12/06 11:43:30;;;;;;;;;;;;;;;;;;4944555;28;19977;-86
2020/12/06 11:45:59;;;;;;;;;;;;;;;;;;4946252;28;19941;-85
2020/12/06 11:48:26;;;;;;;;;;;;;;;;;;4952358;28;19965;-86
2020/12/06 11:50:52;;;;;;;;;;;;;;;;;;4953636;29;20036;-86
2020/12/06 11:53:19;;;;;;;;;;;;;;;;;;4953035;28;20422;-86
2020/12/06 11:58:16;;;;;;;;;;;;;;;;;;4949881;29;20402;-84
2020/12/06 12:00:43;;;;;;;;;;;;;;;;;;4951484;28;19937;-81
2020/12/06 12:03:09;;;;;;;;;;;;;;;;;;4947879;29;20021;-81
2020/12/06 12:05:36;;;;;;;;;;;;;;;;;;4945034;28;20029;-81
2020/12/06 12:08:02;;;;;;;;;;;;;;;;;;4939825;28;20041;-82
2020/12/06 12:10:33;;;;;;;;;;;;;;;;;;4942417;28;19962;-81
2020/12/06 12:13:00;;;;;;;;;;;;;;;;;;4944464;28;19927;-81
2020/12/06 12:15:26;;;;;;;;;;;;;;;;;;4954082;29;19961;-82
2020/12/06 12:17:53;;;;;;;;;;;;;;;;;;4952577;28;20327;-81
2020/12/06 12:20:20;;;;;;;;;;;;;;;;;;4953588;28;20360;-82
2020/12/06 12:22:46;;;;;;;;;;;;;;;;;;4950090;28;20427;-81
2020/12/06 12:25:13;;;;;;;;;;;;;;;;;;4945178;28;19934;-82
2020/12/06 12:27:40;;;;;;;;;;;;;;;;;;4952316;28;19958;-81
2020/12/06 12:30:06;;;;;;;;;;;;;;;;;;4952978;29;19934;-81
2020/12/06 12:32:33;;;;;;;;;;;;;;;;;;4952621;28;20010;-81
2020/12/06 12:34:59;;;;;;;;;;;;;;;;;;4952540;29;19973;-81
2020/12/06 12:37:26;;;;;;;;;;;;;;;;;;4945952;28;19989;-81
2020/12/06 12:39:58;;;;;;;;;;;;;;;;;;4946160;28;20013;-81
2020/12/06 12:42:24;;;;;;;;;;;;;;;;;;4949462;28;19958;-81
2020/12/06 12:44:51;;;;;;;;;;;;;;;;;;4950559;28;19984;-82
2020/12/06 12:47:17;;;;;;;;;;;;;;;;;;4952296;29;19926;-82
2020/12/06 12:49:44;;;;;;;;;;;;;;;;;;4936580;29;19974;-82
2020/12/06 12:52:12;;;;;;;;;;;;;;;;;;4936335;29;20501;-81
2020/12/06 12:54:38;;;;;;;;;;;;;;;;;;4953344;29;19927;-82
2020/12/06 12:57:09;;;;;;;;;;;;;;;;;;4932262;28;19960;-82
2020/12/06 12:59:36;;;;;;;;;;;;;;;;;;4943306;28;19997;-82
2020/12/06 13:02:06;;;;;;;;;;;;;;;;;;4949706;28;19934;-82
2020/12/06 13:04:33;;;;;;;;;;;;;;;;;;4946957;28;19970;-82
2020/12/06 13:07:01;;;;;;;;;;;;;;;;;;4952639;29;20371;-82
2020/12/06 13:09:28;;;;;;;;;;;;;;;;;;4946948;28;19974;-81
2020/12/06 13:11:56;;;;;;;;;;;;;;;;;;4950606;28;20404;-82
2020/12/06 13:14:23;;;;;;;;;;;;;;;;;;4964475;28;20001;-81
2020/12/06 13:16:50;;;;;;;;;;;;;;;;;;4967448;28;19926;-81
2020/12/06 13:19:16;;;;;;;;;;;;;;;;;;4936835;29;19966;-82
2020/12/06 13:21:45;;;;;;;;;;;;;;;;;;4929556;28;20013;-81
2020/12/06 13:24:11;;;;;;;;;;;;;;;;;;4944610;28;19989;-81
2020/12/06 13:26:38;;;;;;;;;;;;;;;;;;4943764;28;19965;-81
2020/12/06 13:29:05;;;;;;;;;;;;;;;;;;4953427;29;19934;-81
2020/12/06 13:31:31;;;;;;;;;;;;;;;;;;4943772;28;19978;-81
2020/12/06 13:33:58;;;;;;;;;;;;;;;;;;4944881;28;20015;-81
2020/12/06 13:36:24;;;;;;;;;;;;;;;;;;4944517;28;19974;-80
2020/12/06 13:38:51;;;;;;;;;;;;;;;;;;4942814;28;20709;-81
2020/12/06 13:41:18;;;;;;;;;;;;;;;;;;4950014;28;19931;-81
2020/12/06 13:43:47;;;;;;;;;;;;;;;;;;4950916;29;19930;-81
2020/12/06 13:46:13;;;;;;;;;;;;;;;;;;4952129;29;19926;-81
2020/12/06 13:48:41;;;;;;;;;;;;;;;;;;4936295;29;20368;-81
2020/12/06 13:51:07;;;;;;;;;;;;;;;;;;4936325;29;20017;-81
2020/12/06 13:53:34;;;;;;;;;;;;;;;;;;4953421;29;20021;-81
2020/12/06 13:56:00;;;;;;;;;;;;;;;;;;4949057;28;20018;-81
2020/12/06 13:58:29;;;;;;;;;;;;;;;;;;4949409;28;19986;-81
2020/12/06 14:01:01;;;;;;;;;;;;;;;;;;4953328;28;20315;-81
2020/12/06 14:03:29;;;;;;;;;;;;;;;;;;4956602;29;20384;-81
2020/12/06 14:05:55;;;;;;;;;;;;;;;;;;4950002;28;19976;-81
2020/12/06 14:08:22;;;;;;;;;;;;;;;;;;4947623;28;20017;-81
2020/12/06 14:10:48;;;;;;;;;;;;;;;;;;4952955;28;19985;-81
2020/12/06 14:13:20;;;;;;;;;;;;;;;;;;4955545;29;20029;-81
2020/12/06 14:15:47;;;;;;;;;;;;;;;;;;4954607;29;20394;-83
2020/12/06 14:18:13;;;;;;;;;;;;;;;;;;4951808;28;20013;-80
2020/12/06 14:20:41;;;;;;;;;;;;;;;;;;4944792;28;20398;-81
2020/12/06 14:23:08;;;;;;;;;;;;;;;;;;4949150;28;20009;-80
2020/12/06 14:25:35;;;;;;;;;;;;;;;;;;4947816;28;20517;-81
2020/12/06 14:28:02;;;;;;;;;;;;;;;;;;4953949;28;20010;-80
2020/12/06 14:30:29;;;;;;;;;;;;;;;;;;4947123;28;20035;-83
2020/12/06 14:32:56;;;;;;;;;;;;;;;;;;4945610;28;19936;-80
2020/12/06 14:35:28;;;;;;;;;;;;;;;;;;4947679;28;19961;-81
2020/12/06 14:37:55;;;;;;;;;;;;;;;;;;4947712;28;20021;-79
2020/12/06 14:40:21;;;;;;;;;;;;;;;;;;4945736;28;20003;-79
2020/12/06 14:42:48;;;;;;;;;;;;;;;;;;4953136;28;20030;-83
2020/12/06 14:45:14;;;;;;;;;;;;;;;;;;4949351;28;20068;-80
2020/12/06 14:47:41;;;;;;;;;;;;;;;;;;4942854;28;20430;-80
2020/12/06 14:50:07;;;;;;;;;;;;;;;;;;4948252;28;20344;-78
2020/12/06 14:52:34;;;;;;;;;;;;;;;;;;4943344;28;20030;-79
2020/12/06 14:55:01;;;;;;;;;;;;;;;;;;4942823;28;19965;-78
2020/12/06 14:57:27;;;;;;;;;;;;;;;;;;4947820;28;19953;-82
2020/12/06 14:59:54;;;;;;;;;;;;;;;;;;4951170;28;19933;-81
2020/12/06 15:02:21;;;;;;;;;;;;;;;;;;4945609;28;19941;-84
2020/12/06 15:04:48;;;;;;;;;;;;;;;;;;4944915;28;19954;-79
2020/12/06 15:07:24;;;;;;;;;;;;;;;;;;4944702;28;19965;-83
2020/12/06 15:09:50;;;;;;;;;;;;;;;;;;4946102;28;19927;-79
2020/12/06 15:12:17;;;;;;;;;;;;;;;;;;4944758;28;19926;-80
2020/12/06 15:14:44;;;;;;;;;;;;;;;;;;4946288;28;19954;-81
2020/12/06 15:17:11;;;;;;;;;;;;;;;;;;4941562;28;20013;-79
2020/12/06 15:19:37;;;;;;;;;;;;;;;;;;4952519;28;19970;-79
2020/12/06 15:22:04;;;;;;;;;;;;;;;;;;4946827;28;20025;-82
2020/12/06 15:24:31;;;;;;;;;;;;;;;;;;4944126;28;20022;-86
2020/12/06 15:26:58;;;;;;;;;;;;;;;;;;4946548;28;19937;-84
2020/12/06 15:29:25;;;;;;;;;;;;;;;;;;4944917;28;20029;-85
2020/12/06 15:31:51;;;;;;;;;;;;;;;;;;4946743;28;20001;-83
2020/12/06 15:34:18;;;;;;;;;;;;;;;;;;4946893;28;19962;-84
2020/12/06 15:36:47;;;;;;;;;;;;;;;;;;4946677;28;21436;-85
2020/12/06 15:39:16;;;;;;;;;;;;;;;;;;4947356;28;19950;-84
2020/12/06 15:41:43;;;;;;;;;;;;;;;;;;4944828;28;19977;-81
2020/12/06 15:44:10;;;;;;;;;;;;;;;;;;4944248;28;19982;-82
2020/12/06 15:46:38;;;;;;;;;;;;;;;;;;4944436;28;19927;-87
2020/12/06 15:49:04;;;;;;;;;;;;;;;;;;4947786;28;20620;-82
2020/12/06 15:51:32;;;;;;;;;;;;;;;;;;4945229;28;20040;-82
2020/12/06 15:53:59;;;;;;;;;;;;;;;;;;4944599;28;19976;-81
2020/12/06 15:56:28;;;;;;;;;;;;;;;;;;4946581;28;20050;-82
2020/12/06 15:58:54;;;;;;;;;;;;;;;;;;4942831;28;19958;-82
2020/12/06 16:01:23;;;;;;;;;;;;;;;;;;4941297;28;20380;-80
2020/12/06 16:03:49;;;;;;;;;;;;;;;;;;4941289;28;19962;-80
2020/12/06 16:06:16;;;;;;;;;;;;;;;;;;4944055;28;20017;-78
2020/12/06 16:08:45;;;;;;;;;;;;;;;;;;4941381;28;19982;-79
2020/12/06 16:11:12;;;;;;;;;;;;;;;;;;4942202;28;20813;-77
2020/12/06 16:13:39;;;;;;;;;;;;;;;;;;4948109;28;20470;-79
2020/12/06 16:16:06;;;;;;;;;;;;;;;;;;4941416;28;20368;-78
2020/12/06 16:18:32;;;;;;;;;;;;;;;;;;4940849;28;20024;-78
2020/12/06 16:21:00;;;;;;;;;;;;;;;;;;4940084;28;19934;-77
2020/12/06 16:23:29;;;;;;;;;;;;;;;;;;4943201;28;20502;-75
2020/12/06 16:25:55;;;;;;;;;;;;;;;;;;4947321;28;20081;-75
2020/12/06 16:28:22;;;;;;;;;;;;;;;;;;4938504;28;20271;-76
2020/12/06 16:30:49;;;;;;;;;;;;;;;;;;4939716;28;20556;-75
2020/12/06 16:33:15;;;;;;;;;;;;;;;;;;4939350;28;19933;-76
2020/12/06 16:35:42;;;;;;;;;;;;;;;;;;4939016;28;20005;-75
2020/12/06 16:38:09;;;;;;;;;;;;;;;;;;4945935;28;19927;-75
2020/12/06 16:40:36;;;;;;;;;;;;;;;;;;4941977;28;20382;-75
2020/12/06 16:43:02;;;;;;;;;;;;;;;;;;4937759;28;20026;-75
2020/12/06 16:45:29;;;;;;;;;;;;;;;;;;4938656;28;20407;-75
2020/12/06 16:47:55;;;;;;;;;;;;;;;;;;4950390;29;20033;-77
2020/12/06 16:50:22;;;;;;;;;;;;;;;;;;4946605;28;20007;-77
2020/12/06 16:52:48;;;;;;;;;;;;;;;;;;4937391;28;19978;-75
2020/12/06 16:55:16;;;;;;;;;;;;;;;;;;4944889;28;19977;-76
2020/12/06 16:57:42;;;;;;;;;;;;;;;;;;4949673;29;20017;-75
2020/12/06 17:00:09;;;;;;;;;;;;;;;;;;4946461;28;19933;-77
2020/12/06 17:02:36;;;;;;;;;;;;;;;;;;4940325;28;20061;-76